Time;durP1;ratioP1;P1;durP2;ratioP2;P2;SDS_P1;SDS_P2;PMS_P1;PMS_P2;Temp;Humidity;BMP_temperature;BMP_pressure;BME280_temperature;BME280_humidity;BME280_pressure;Samples;Min_cycle;Max_cycle;Signal;HPM_P1;HPM_P2
2022/02/10 00:14:22;;;;;;;8.98;2.10;;;5.50;99.90;;;;;;6310218;22;20090;-90
2022/02/10 00:19:45;;;;;;;8.98;2.05;;;5.50;99.90;;;;;;6320792;22;20060;-90
2022/02/10 00:35:28;;;;;;;15.00;2.20;;;5.30;99.90;;;;;;6311859;22;20066;-91
2022/02/10 00:37:59;;;;;;;4.32;1.70;;;5.30;99.90;;;;;;6283191;22;20084;-90
2022/02/10 00:40:43;;;;;;;14.63;2.63;;;5.30;99.90;;;;;;6282356;22;20003;-90
2022/02/10 00:43:10;;;;;;;16.30;2.13;;;5.30;99.90;;;;;;6281693;22;20037;-90
2022/02/10 00:45:36;;;;;;;10.95;2.35;;;5.30;99.90;;;;;;6282099;22;20007;-89
2022/02/10 00:48:06;;;;;;;8.60;1.65;;;5.30;99.90;;;;;;6282015;22;20454;-90
2022/02/10 00:50:33;;;;;;;6.95;2.08;;;5.30;99.90;;;;;;6282169;22;20007;-90
2022/02/10 00:53:10;;;;;;;16.40;1.85;;;5.30;99.90;;;;;;6282067;22;20517;-89
2022/02/10 00:55:39;;;;;;;12.30;1.88;;;5.30;99.90;;;;;;6282266;22;20000;-89
2022/02/10 00:58:08;;;;;;;12.10;2.25;;;5.30;99.90;;;;;;6281881;22;20441;-90
2022/02/10 01:02:18;;;;;;;13.13;2.30;;;5.20;99.90;;;;;;6282101;22;20003;-91
2022/02/10 01:14:19;;;;;;;9.40;1.83;;;5.10;99.90;;;;;;6309351;22;20003;-90
2022/02/10 01:30:18;;;;;;;14.43;1.80;;;5.00;99.90;;;;;;6216126;23;20015;-90
2022/02/10 01:32:47;;;;;;;9.90;1.52;;;5.00;99.90;;;;;;6189929;23;20016;-90
2022/02/10 01:35:18;;;;;;;10.93;2.20;;;5.00;99.90;;;;;;6189414;23;20412;-90
2022/02/10 01:37:44;;;;;;;10.10;2.08;;;5.00;99.90;;;;;;6189261;23;20008;-89
2022/02/10 01:57:46;;;;;;;8.50;1.92;;;4.90;99.90;;;;;;6183297;23;20432;-90
2022/02/10 02:05:46;;;;;;;6.43;1.55;;;4.80;99.90;;;;;;6308896;22;20060;-91
2022/02/10 02:08:12;;;;;;;6.20;1.30;;;4.80;99.90;;;;;;6282098;22;20007;-91
2022/02/10 02:10:38;;;;;;;8.00;1.20;;;4.80;99.90;;;;;;6281757;22;20007;-90
2022/02/10 02:13:04;;;;;;;8.48;1.65;;;4.80;99.90;;;;;;6281949;22;20004;-90
2022/02/10 02:15:30;;;;;;;8.45;1.60;;;4.80;99.90;;;;;;6281412;22;20434;-90
2022/02/10 02:17:56;;;;;;;15.90;2.40;;;4.70;99.90;;;;;;6281088;22;20441;-89
2022/02/10 02:20:21;;;;;;;8.98;1.90;;;4.70;99.90;;;;;;6285554;22;20000;-92
2022/02/10 02:22:47;;;;;;;6.20;1.30;;;4.70;99.90;;;;;;6285055;22;20438;-90
2022/02/10 02:25:13;;;;;;;13.55;2.10;;;4.70;99.90;;;;;;6308899;22;20052;-91
2022/02/10 02:27:54;;;;;;;11.10;2.08;;;4.70;99.90;;;;;;6280623;22;20008;-91
2022/02/10 02:30:41;;;;;;;9.95;1.60;;;4.70;99.90;;;;;;6281178;22;19999;-91
2022/02/10 02:34:03;;;;;;;7.55;1.65;;;4.70;99.90;;;;;;6280674;22;20358;-91
2022/02/10 03:06:33;;;;;;;8.25;1.63;;;4.50;99.90;;;;;;6308253;22;20014;-90
2022/02/10 03:09:04;;;;;;;8.68;1.20;;;4.50;99.90;;;;;;6281022;22;20006;-90
2022/02/10 03:11:30;;;;;;;9.27;1.38;;;4.40;99.90;;;;;;6280768;22;19999;-89
2022/02/10 03:14:04;;;;;;;10.82;1.33;;;4.40;99.90;;;;;;6280904;22;20070;-90
2022/02/10 03:22:58;;;;;;;13.43;2.10;;;4.40;99.90;;;;;;6307701;22;20030;-89
2022/02/10 04:16:19;;;;;;;11.88;1.38;;;4.20;99.90;;;;;;6308548;22;20096;-89
2022/02/10 04:21:20;;;;;;;9.25;1.40;;;4.10;99.90;;;;;;6310522;22;20436;-89
2022/02/10 04:24:08;;;;;;;13.75;1.50;;;4.20;99.90;;;;;;6282236;22;20465;-89
2022/02/10 04:53:00;;;;;;;6.97;1.30;;;4.10;99.90;;;;;;6309209;22;20469;-88
2022/02/10 05:00:10;;;;;;;12.40;1.30;;;4.00;99.90;;;;;;6110562;23;19900;-89
2022/02/10 05:05:26;;;;;;;10.27;1.17;;;4.00;99.90;;;;;;6155175;23;20048;-90
2022/02/10 05:31:46;;;;;;;15.93;2.08;;;3.90;99.90;;;;;;6302438;22;20477;-89
2022/02/10 05:34:09;;;;;;;5.18;1.30;;;3.90;99.90;;;;;;6308968;22;20361;-90
2022/02/10 05:36:37;;;;;;;15.02;1.55;;;3.80;99.90;;;;;;6281874;22;20003;-89
2022/02/10 05:39:23;;;;;;;10.70;2.55;;;3.80;99.90;;;;;;6282138;22;20011;-88
2022/02/10 05:44:55;;;;;;;15.27;1.40;;;3.80;99.90;;;;;;6309142;22;20053;-89
2022/02/10 05:55:49;;;;;;;6.85;1.13;;;3.70;99.90;;;;;;6310129;22;20030;-91
2022/02/10 05:58:11;;;;;;;9.02;2.17;;;3.60;99.90;;;;;;6307381;22;20007;-89
2022/02/10 06:49:35;;;;;;;6.57;2.28;;;3.10;99.90;;;;;;6308590;22;20015;-90
2022/02/10 06:51:54;;;;;;;4.55;1.38;;;3.10;99.90;;;;;;6306503;22;19999;-90
2022/02/10 06:54:43;;;;;;;6.87;1.63;;;3.10;99.90;;;;;;6280013;22;19999;-89
2022/02/10 07:10:26;;;;;;;4.15;1.33;;;3.20;99.90;;;;;;6309590;22;19999;-87
2022/02/10 09:05:18;;;;;;;19.17;2.03;;;3.60;99.90;;;;;;6319242;22;20015;-89
2022/02/10 09:07:36;;;;;;;13.60;1.80;;;3.60;99.90;;;;;;6287866;22;20012;-90
2022/02/10 09:10:15;;;;;;;10.70;1.67;;;3.70;99.90;;;;;;6308558;22;20003;-89
2022/02/10 09:13:10;;;;;;;14.82;1.98;;;3.70;99.90;;;;;;6314392;22;19999;-89
2022/02/10 10:03:14;;;;;;;4.78;1.00;;;6.00;99.90;;;;;;6309618;22;20346;-90
2022/02/10 10:19:52;;;;;;;11.02;1.48;;;5.90;99.90;;;;;;6318294;22;20022;-89
2022/02/10 10:50:36;;;;;;;4.30;0.85;;;5.70;99.90;;;;;;6307931;22;20472;-92
2022/02/10 10:53:22;;;;;;;5.53;1.05;;;6.00;99.90;;;;;;6281522;22;20427;-93
2022/02/10 10:56:00;;;;;;;9.35;1.58;;;6.30;99.90;;;;;;6280872;22;20007;-91
2022/02/10 11:37:35;;;;;;;5.68;1.17;;;7.60;99.90;;;;;;6306436;22;19929;-91
2022/02/10 11:40:09;;;;;;;5.53;0.98;;;8.20;99.90;;;;;;6279061;22;20018;-92
2022/02/10 11:42:44;;;;;;;5.82;1.20;;;8.60;99.90;;;;;;6278400;22;20508;-90
2022/02/10 14:09:42;;;;;;;15.80;1.92;;;11.00;71.90;;;;;;6309684;22;20085;-90
2022/02/10 14:14:59;;;;;;;7.85;1.90;;;11.10;71.40;;;;;;6319760;22;20007;-90
2022/02/10 14:17:34;;;;;;;8.90;2.00;;;11.20;71.10;;;;;;6281231;22;20003;-90
2022/02/10 14:20:10;;;;;;;8.15;1.83;;;11.30;70.80;;;;;;6281842;22;20030;-88
2022/02/10 14:27:47;;;;;;;8.55;1.70;;;10.90;71.10;;;;;;6308990;22;20018;-88
2022/02/10 14:30:12;;;;;;;12.98;1.58;;;10.40;71.70;;;;;;6280649;22;20011;-89
2022/02/10 14:32:43;;;;;;;12.38;1.70;;;10.00;72.70;;;;;;6279575;22;20039;-90
2022/02/10 14:35:23;;;;;;;11.43;2.17;;;9.50;73.60;;;;;;6279626;22;20447;-89
2022/02/10 15:32:46;;;;;;;9.77;1.67;;;6.80;83.90;;;;;;6212371;23;20024;-89
2022/02/10 15:51:25;;;;;;;13.90;2.33;;;7.70;83.70;;;;;;6212416;23;20008;-89
2022/02/10 16:13:50;;;;;;;17.58;2.03;;;6.60;88.90;;;;;;6276982;22;20035;-89
2022/02/10 16:18:30;;;;;;;10.90;2.08;;;6.50;90.10;;;;;;6278448;22;20018;-89
2022/02/10 16:21:01;;;;;;;12.93;2.25;;;6.40;90.20;;;;;;6276295;22;20011;-90
2022/02/10 16:23:29;;;;;;;14.93;2.05;;;6.40;90.50;;;;;;6276922;22;20020;-89
2022/02/10 16:26:11;;;;;;;10.90;3.05;;;6.30;90.70;;;;;;6277382;22;20003;-89
2022/02/10 16:28:40;;;;;;;11.25;2.08;;;6.30;91.00;;;;;;6277066;22;20014;-89
2022/02/10 16:31:11;;;;;;;11.68;1.92;;;6.20;91.40;;;;;;6277732;22;20087;-88
2022/02/10 16:33:37;;;;;;;12.73;1.58;;;6.20;91.70;;;;;;6276842;22;19999;-88
2022/02/10 16:36:05;;;;;;;8.77;1.65;;;6.10;91.90;;;;;;6278809;22;20053;-88
2022/02/10 16:38:32;;;;;;;20.10;2.85;;;6.10;92.20;;;;;;6278132;22;20378;-89
2022/02/10 16:40:57;;;;;;;9.88;2.08;;;6.00;92.50;;;;;;6251267;22;20035;-88
2022/02/10 16:43:23;;;;;;;12.02;1.83;;;6.00;92.80;;;;;;6276254;22;20012;-89
2022/02/10 16:45:49;;;;;;;13.20;2.25;;;5.90;93.50;;;;;;6275513;22;20007;-89
2022/02/10 16:48:15;;;;;;;11.35;1.60;;;5.90;94.00;;;;;;6281016;22;20415;-88
2022/02/10 16:50:44;;;;;;;13.10;1.58;;;5.80;94.50;;;;;;6281896;22;20015;-89
2022/02/10 16:53:14;;;;;;;11.25;1.90;;;5.70;95.30;;;;;;6281665;22;20034;-86
2022/02/10 16:56:00;;;;;;;12.32;1.85;;;5.60;95.90;;;;;;6281849;22;20007;-88
2022/02/10 17:01:38;;;;;;;8.73;1.52;;;5.50;97.10;;;;;;6312253;22;20082;-88
2022/02/10 17:27:29;;;;;;;8.23;2.40;;;5.00;99.90;;;;;;6309093;22;20038;-91
2022/02/10 17:44:17;;;;;;;7.55;2.17;;;5.00;99.90;;;;;;6308790;22;20123;-91
2022/02/10 17:46:07;;;;;;;8.07;1.42;;;5.00;99.90;;;;;;6281918;22;20007;-93
2022/02/10 17:53:57;;;;;;;9.75;1.60;;;5.00;99.90;;;;;;6320152;22;20331;-93
2022/02/10 17:56:23;;;;;;;5.90;1.17;;;4.90;99.90;;;;;;6282260;22;20422;-93
2022/02/10 17:58:49;;;;;;;4.43;1.10;;;4.90;99.90;;;;;;6282529;22;20411;-93
2022/02/10 18:01:15;;;;;;;7.50;1.20;;;4.90;99.90;;;;;;6281355;22;20008;-95
2022/02/10 18:03:41;;;;;;;8.93;1.40;;;4.80;99.90;;;;;;6281616;22;20019;-94
2022/02/10 18:06:24;;;;;;;2.80;1.10;;;4.80;99.90;;;;;;6289320;22;20030;-95
2022/02/10 18:17:20;;;;;;;;;;;;;;;;;;;;;
2022/02/10 18:19:55;;;;;;;7.78;2.05;;;4.90;99.90;;;;;;6309051;22;20082;-93
2022/02/10 18:22:51;;;;;;;10.95;3.13;;;5.00;99.90;;;;;;6268718;22;20021;-93
2022/02/10 18:25:41;;;;;;;11.25;2.40;;;5.00;99.90;;;;;;6281451;22;20098;-93
2022/02/10 18:33:25;;;;;;;7.93;1.80;;;5.10;99.90;;;;;;6318108;22;20019;-93
2022/02/10 19:06:05;;;;;;;7.30;1.80;;;5.20;99.90;;;;;;6306940;22;20003;-95
2022/02/10 19:11:14;;;;;;;22.75;4.05;;;5.10;99.90;;;;;;6319267;22;19999;-93
2022/02/10 19:13:40;;;;;;;18.10;4.40;;;5.10;99.90;;;;;;6280219;22;20074;-93
2022/02/10 19:16:06;;;;;;;14.80;2.38;;;5.10;99.90;;;;;;6280378;22;20018;-95
2022/02/10 19:18:32;;;;;;;13.52;2.65;;;5.10;99.90;;;;;;6282713;22;20030;-94
2022/02/10 19:20:59;;;;;;;12.27;2.53;;;5.10;99.90;;;;;;6282176;22;20025;-92
2022/02/10 19:23:27;;;;;;;6.90;1.63;;;5.10;99.90;;;;;;6281447;22;20011;-92
2022/02/10 19:25:52;;;;;;;11.57;2.33;;;5.10;99.90;;;;;;6281767;22;20082;-92
2022/02/10 19:28:19;;;;;;;13.75;2.03;;;5.10;99.90;;;;;;6281388;22;20003;-93
2022/02/10 19:30:45;;;;;;;9.68;2.47;;;5.10;99.90;;;;;;6281514;22;20474;-92
2022/02/10 19:33:14;;;;;;;9.65;2.80;;;5.10;99.90;;;;;;6281376;22;20098;-94
2022/02/10 19:35:46;;;;;;;11.02;2.53;;;5.10;99.90;;;;;;6280437;22;20011;-93
2022/02/10 19:43:25;;;;;;;7.78;2.08;;;5.10;99.90;;;;;;6265388;22;20573;-93
2022/02/10 19:45:51;;;;;;;15.80;2.83;;;5.10;99.90;;;;;;6281139;22;20435;-91
2022/02/10 19:48:17;;;;;;;16.08;2.50;;;5.10;99.90;;;;;;6282387;22;20030;-94
2022/02/10 19:50:43;;;;;;;16.20;2.38;;;5.10;99.90;;;;;;6282571;22;20030;-92
2022/02/10 19:53:12;;;;;;;13.35;2.10;;;5.10;99.90;;;;;;6283939;22;20010;-91
2022/02/10 19:55:41;;;;;;;8.27;1.65;;;5.10;99.90;;;;;;6285648;22;20024;-95
2022/02/10 19:58:10;;;;;;;17.88;2.35;;;5.10;99.90;;;;;;6293046;22;20301;-93
2022/02/10 20:00:44;;;;;;;11.18;1.80;;;5.10;99.90;;;;;;6291936;22;20007;-95
2022/02/10 20:03:17;;;;;;;21.23;3.50;;;5.10;99.90;;;;;;6285484;22;20094;-94
2022/02/10 20:05:45;;;;;;;8.85;2.03;;;5.10;99.90;;;;;;6287238;22;20013;-92
2022/02/10 20:08:13;;;;;;;11.68;2.50;;;5.10;99.90;;;;;;6294674;22;20030;-94
2022/02/10 20:10:39;;;;;;;17.38;2.33;;;5.10;99.90;;;;;;6284422;22;20007;-93
2022/02/10 20:13:05;;;;;;;16.05;3.58;;;5.10;99.90;;;;;;6283257;22;19996;-91
2022/02/10 20:15:33;;;;;;;12.23;2.28;;;5.10;99.90;;;;;;6283405;22;20022;-92
2022/02/10 20:18:01;;;;;;;14.77;2.35;;;5.10;99.90;;;;;;6284307;22;20082;-92
2022/02/10 20:20:28;;;;;;;12.80;2.63;;;5.10;99.90;;;;;;6292879;22;20077;-92
2022/02/10 20:22:55;;;;;;;8.88;1.60;;;5.10;99.90;;;;;;6283247;22;20438;-94
2022/02/10 20:25:21;;;;;;;10.25;1.85;;;5.10;99.90;;;;;;6283344;22;20007;-93
2022/02/10 20:27:48;;;;;;;12.25;2.30;;;5.10;99.90;;;;;;6283234;22;20060;-91
2022/02/10 20:30:16;;;;;;;11.80;2.45;;;5.10;99.90;;;;;;6282759;22;20065;-93
2022/02/10 20:32:42;;;;;;;8.43;2.20;;;5.10;99.90;;;;;;6283654;22;20480;-93
2022/02/10 20:35:10;;;;;;;9.30;1.92;;;5.10;99.90;;;;;;6283089;22;20003;-93
2022/02/10 20:37:36;;;;;;;8.55;1.63;;;5.10;99.90;;;;;;6282983;22;20015;-91
2022/02/10 20:40:04;;;;;;;14.75;2.83;;;5.10;99.90;;;;;;6283166;22;20008;-92
2022/02/10 20:42:32;;;;;;;20.15;2.40;;;5.10;99.90;;;;;;6282472;22;20046;-91
2022/02/10 20:45:01;;;;;;;13.07;2.35;;;5.10;99.90;;;;;;6284045;22;20018;-95
2022/02/10 20:47:27;;;;;;;8.48;1.30;;;5.10;99.90;;;;;;6283393;22;20078;-93
2022/02/10 20:49:53;;;;;;;7.25;1.40;;;5.10;99.90;;;;;;6284844;22;20004;-94
2022/02/10 20:52:22;;;;;;;11.80;2.22;;;5.20;99.90;;;;;;6283542;22;20004;-94
2022/02/10 20:54:51;;;;;;;6.93;1.23;;;5.20;99.90;;;;;;6282847;22;20037;-93
2022/02/10 20:57:17;;;;;;;7.45;1.27;;;5.20;99.90;;;;;;6282693;22;19999;-94
2022/02/10 20:59:46;;;;;;;13.90;2.05;;;5.20;99.90;;;;;;6282249;22;20411;-93
2022/02/10 21:02:17;;;;;;;10.93;1.75;;;5.30;99.90;;;;;;6283184;22;20087;-94
2022/02/10 21:07:18;;;;;;;11.95;1.40;;;5.30;99.90;;;;;;6311123;22;20000;-93
2022/02/10 21:09:55;;;;;;;13.18;1.60;;;5.30;99.90;;;;;;6283631;22;20093;-94
2022/02/10 21:12:27;;;;;;;16.63;4.07;;;5.30;99.90;;;;;;6283486;22;20010;-94
2022/02/10 21:14:53;;;;;;;10.25;1.60;;;5.30;99.90;;;;;;6282925;22;19999;-93
2022/02/10 21:17:23;;;;;;;11.05;2.70;;;5.40;99.90;;;;;;6282545;22;20011;-94
2022/02/10 21:19:49;;;;;;;;;;;5.40;99.90;;;;;;6283339;22;20002;-95
2022/02/10 21:22:20;;;;;;;8.15;1.40;;;5.40;99.90;;;;;;6282910;22;19902;-94
2022/02/10 21:24:57;;;;;;;13.55;2.03;;;5.50;99.90;;;;;;6283069;22;20011;-93
2022/02/10 21:30:03;;;;;;;13.07;2.78;;;5.50;99.90;;;;;;6321597;22;20007;-93
2022/02/10 21:32:32;;;;;;;13.98;2.08;;;5.50;99.90;;;;;;6284121;22;20021;-92
2022/02/10 21:37:47;;;;;;;12.05;3.45;;;5.50;99.90;;;;;;6310229;22;20028;-92
2022/02/10 22:08:22;;;;;;;8.25;1.55;;;5.10;99.90;;;;;;6318614;22;20007;-93
2022/02/10 22:20:59;;;;;;;13.05;1.85;;;5.00;99.90;;;;;;6308243;22;20014;-92
2022/02/10 22:23:27;;;;;;;11.68;2.72;;;5.00;99.90;;;;;;6281433;22;20152;-94
2022/02/10 22:26:20;;;;;;;14.65;1.85;;;5.00;99.90;;;;;;6281074;22;20014;-92
2022/02/10 22:36:43;;;;;;;15.10;2.05;;;5.00;99.90;;;;;;6308326;22;20060;-92
2022/02/10 22:39:11;;;;;;;14.23;2.80;;;5.00;99.90;;;;;;6281220;22;20093;-94
2022/02/10 22:41:37;;;;;;;17.25;2.92;;;5.00;99.90;;;;;;6281794;22;20027;-92
2022/02/10 22:44:09;;;;;;;14.45;2.90;;;5.00;99.90;;;;;;6255634;22;20451;-93
2022/02/10 22:46:35;;;;;;;14.40;2.40;;;5.00;99.90;;;;;;6281646;22;20015;-92
2022/02/10 22:49:01;;;;;;;11.50;2.03;;;5.00;99.90;;;;;;6283706;22;20014;-93
2022/02/10 22:51:29;;;;;;;9.55;1.67;;;4.90;99.90;;;;;;6289023;22;19999;-92
2022/02/10 22:53:55;;;;;;;20.65;2.20;;;4.90;99.90;;;;;;6288192;22;20011;-93
2022/02/10 22:56:29;;;;;;;15.45;3.50;;;4.80;99.90;;;;;;6281747;22;20040;-92
2022/02/10 22:59:01;;;;;;;11.40;2.35;;;4.80;99.90;;;;;;6281414;22;20101;-93
2022/02/10 23:01:27;;;;;;;15.40;2.20;;;4.80;99.90;;;;;;6281499;22;20010;-93
2022/02/10 23:03:57;;;;;;;16.55;2.60;;;4.80;99.90;;;;;;6280651;22;20031;-92
2022/02/10 23:06:23;;;;;;;19.60;2.38;;;4.70;99.90;;;;;;6281096;22;20010;-94
2022/02/10 23:08:49;;;;;;;18.05;3.20;;;4.70;99.90;;;;;;6280932;22;20003;-92
2022/02/10 23:11:17;;;;;;;13.43;2.38;;;4.60;99.90;;;;;;6281478;22;20082;-93
2022/02/10 23:13:46;;;;;;;17.60;2.40;;;4.60;99.90;;;;;;6280826;22;20003;-94
2022/02/10 23:16:15;;;;;;;11.55;2.20;;;4.60;99.90;;;;;;6280386;22;20004;-93
2022/02/10 23:18:42;;;;;;;19.38;2.45;;;4.60;99.90;;;;;;6308253;22;20003;-93
2022/02/10 23:21:12;;;;;;;12.13;2.42;;;4.50;99.90;;;;;;6279910;22;20703;-93
2022/02/10 23:23:39;;;;;;;12.60;2.33;;;4.50;99.90;;;;;;6280832;22;20015;-93
2022/02/10 23:26:13;;;;;;;16.20;2.38;;;4.40;99.90;;;;;;6281416;22;20004;-93
2022/02/10 23:28:42;;;;;;;16.38;3.28;;;4.40;99.90;;;;;;6282514;22;20011;-93
2022/02/10 23:31:10;;;;;;;12.98;2.25;;;4.40;99.90;;;;;;6290033;22;20043;-94
2022/02/10 23:33:40;;;;;;;16.92;2.00;;;4.40;99.90;;;;;;6283005;22;20007;-93
2022/02/10 23:38:50;;;;;;;19.67;3.00;;;4.40;99.90;;;;;;6323832;22;20366;-93
2022/02/10 23:43:48;;;;;;;15.30;2.50;;;4.40;99.90;;;;;;6286660;22;20070;-94
2022/02/10 23:46:15;;;;;;;12.18;2.00;;;4.40;99.90;;;;;;6280790;22;20090;-93
2022/02/10 23:48:41;;;;;;;16.10;2.50;;;4.30;99.90;;;;;;6280169;22;20011;-92
2022/02/10 23:51:07;;;;;;;17.63;2.10;;;4.30;99.90;;;;;;6280116;22;20026;-92
2022/02/10 23:53:34;;;;;;;18.83;3.47;;;4.30;99.90;;;;;;6280653;22;20003;-94
2022/02/10 23:56:03;;;;;;;18.08;2.85;;;4.30;99.90;;;;;;6280140;22;20073;-92
2022/02/10 23:58:41;;;;;;;12.68;2.20;;;4.30;99.90;;;;;;6280256;22;20010;-93
